sensor_id;sensor_type;location;lat;lon;timestamp;pressure;altitude;pressure_sealevel;temperature;humidity
35443;BME280;21561;55.654;37.592;2023-04-21T00:02:17;98718.03;;;9.51;28.81
35443;BME280;21561;55.654;37.592;2023-04-21T00:04:43;98713.84;;;9.44;29.19
35443;BME280;21561;55.654;37.592;2023-04-21T00:07:11;98701.91;;;9.36;28.86
35443;BME280;21561;55.654;37.592;2023-04-21T00:09:40;98707.19;;;9.30;29.12
35443;BME280;21561;55.654;37.592;2023-04-21T00:12:06;98714.19;;;9.24;28.87
35443;BME280;21561;55.654;37.592;2023-04-21T00:14:33;98716.91;;;9.16;29.43
35443;BME280;21561;55.654;37.592;2023-04-21T00:17:00;98721.31;;;9.11;29.25
35443;BME280;21561;55.654;37.592;2023-04-21T00:19:26;98716.22;;;9.06;29.55
35443;BME280;21561;55.654;37.592;2023-04-21T00:21:54;98718.84;;;9.05;29.36
35443;BME280;21561;55.654;37.592;2023-04-21T00:24:24;98718.00;;;9.03;29.48
35443;BME280;21561;55.654;37.592;2023-04-21T00:26:51;98724.06;;;9.00;29.25
35443;BME280;21561;55.654;37.592;2023-04-21T00:29:18;98716.34;;;8.98;29.24
35443;BME280;21561;55.654;37.592;2023-04-21T00:31:45;98718.91;;;9.00;29.21
35443;BME280;21561;55.654;37.592;2023-04-21T00:34:11;98727.56;;;8.99;29.27
35443;BME280;21561;55.654;37.592;2023-04-21T00:36:38;98722.44;;;8.94;29.33
35443;BME280;21561;55.654;37.592;2023-04-21T00:39:04;98723.38;;;8.90;29.45
35443;BME280;21561;55.654;37.592;2023-04-21T00:41:31;98730.34;;;8.85;29.76
35443;BME280;21561;55.654;37.592;2023-04-21T00:46:26;98728.72;;;8.78;29.77
35443;BME280;21561;55.654;37.592;2023-04-21T00:48:53;98726.16;;;8.76;29.50
35443;BME280;21561;55.654;37.592;2023-04-21T00:51:19;98725.31;;;8.76;29.41
35443;BME280;21561;55.654;37.592;2023-04-21T00:53:46;98709.78;;;8.76;29.35
35443;BME280;21561;55.654;37.592;2023-04-21T00:56:12;98704.66;;;8.73;29.44
35443;BME280;21561;55.654;37.592;2023-04-21T00:58:40;98702.94;;;8.72;29.68
35443;BME280;21561;55.654;37.592;2023-04-21T01:01:07;98709.84;;;8.71;29.45
35443;BME280;21561;55.654;37.592;2023-04-21T01:03:34;98696.06;;;8.71;29.33
35443;BME280;21561;55.654;37.592;2023-04-21T01:06:01;98702.94;;;8.72;29.26
35443;BME280;21561;55.654;37.592;2023-04-21T01:08:28;98702.94;;;8.72;29.13
35443;BME280;21561;55.654;37.592;2023-04-21T01:10:54;98704.69;;;8.70;29.56
35443;BME280;21561;55.654;37.592;2023-04-21T01:13:21;98707.28;;;8.68;29.46
35443;BME280;21561;55.654;37.592;2023-04-21T01:15:47;98711.66;;;8.65;29.72
35443;BME280;21561;55.654;37.592;2023-04-21T01:18:14;98717.75;;;8.60;29.68
35443;BME280;21561;55.654;37.592;2023-04-21T01:20:42;98716.94;;;8.58;29.82
35443;BME280;21561;55.654;37.592;2023-04-21T01:23:10;98702.28;;;8.56;29.42
35443;BME280;21561;55.654;37.592;2023-04-21T01:25:36;98700.63;;;8.53;29.60
35443;BME280;21561;55.654;37.592;2023-04-21T01:28:03;98708.38;;;8.53;29.76
35443;BME280;21561;55.654;37.592;2023-04-21T01:30:29;98706.66;;;8.52;29.61
35443;BME280;21561;55.654;37.592;2023-04-21T01:32:56;98710.09;;;8.54;29.68
35443;BME280;21561;55.654;37.592;2023-04-21T01:35:24;98699.75;;;8.54;29.40
35443;BME280;21561;55.654;37.592;2023-04-21T01:37:50;98702.38;;;8.51;29.46
35443;BME280;21561;55.654;37.592;2023-04-21T01:40:17;98699.81;;;8.48;29.51
35443;BME280;21561;55.654;37.592;2023-04-21T01:42:43;98701.56;;;8.46;29.80
35443;BME280;21561;55.654;37.592;2023-04-21T01:45:10;98698.16;;;8.44;29.74
35443;BME280;21561;55.654;37.592;2023-04-21T01:47:37;98708.50;;;8.41;29.90
35443;BME280;21561;55.654;37.592;2023-04-21T01:50:03;98703.38;;;8.38;29.57
35443;BME280;21561;55.654;37.592;2023-04-21T01:52:30;98703.38;;;8.38;29.71
35443;BME280;21561;55.654;37.592;2023-04-21T01:54:57;98712.00;;;8.37;29.99
35443;BME280;21561;55.654;37.592;2023-04-21T01:57:23;98705.19;;;8.33;29.82
35443;BME280;21561;55.654;37.592;2023-04-21T01:59:50;98704.31;;;8.31;29.63
35443;BME280;21561;55.654;37.592;2023-04-21T02:02:17;98706.97;;;8.26;29.76
35443;BME280;21561;55.654;37.592;2023-04-21T02:04:43;98720.78;;;8.23;30.00
35443;BME280;21561;55.654;37.592;2023-04-21T02:07:10;98722.53;;;8.21;30.23
35443;BME280;21561;55.654;37.592;2023-04-21T02:09:37;98717.38;;;8.20;30.01
35443;BME280;21561;55.654;37.592;2023-04-21T02:12:03;98720.88;;;8.17;30.12
35443;BME280;21561;55.654;37.592;2023-04-21T02:14:30;98718.31;;;8.16;30.15
35443;BME280;21561;55.654;37.592;2023-04-21T02:16:57;98726.06;;;8.14;29.75
35443;BME280;21561;55.654;37.592;2023-04-21T02:19:23;98719.22;;;8.13;29.87
35443;BME280;21561;55.654;37.592;2023-04-21T02:21:50;98732.13;;;8.12;30.23
35443;BME280;21561;55.654;37.592;2023-04-21T02:24:17;98727.84;;;8.09;30.38
35443;BME280;21561;55.654;37.592;2023-04-21T02:26:43;98738.25;;;8.06;30.29
35443;BME280;21561;55.654;37.592;2023-04-21T02:29:10;98732.19;;;8.06;29.77
35443;BME280;21561;55.654;37.592;2023-04-21T02:31:36;98735.69;;;8.03;30.54
35443;BME280;21561;55.654;37.592;2023-04-21T02:34:22;98727.94;;;8.03;30.30
35443;BME280;21561;55.654;37.592;2023-04-21T02:36:49;98731.38;;;8.03;30.01
35443;BME280;21561;55.654;37.592;2023-04-21T02:39:16;98738.25;;;8.03;30.35
35443;BME280;21561;55.654;37.592;2023-04-21T02:41:43;98733.97;;;8.02;30.73
35443;BME280;21561;55.654;37.592;2023-04-21T02:44:09;98736.53;;;8.02;30.10
35443;BME280;21561;55.654;37.592;2023-04-21T02:46:38;98729.66;;;8.04;29.92
35443;BME280;21561;55.654;37.592;2023-04-21T02:49:05;98733.94;;;8.03;30.00
35443;BME280;21561;55.654;37.592;2023-04-21T02:51:32;98738.25;;;8.03;30.01
35443;BME280;21561;55.654;37.592;2023-04-21T02:53:58;98723.59;;;8.05;29.69
35443;BME280;21561;55.654;37.592;2023-04-21T02:56:25;98723.56;;;8.10;30.04
35443;BME280;21561;55.654;37.592;2023-04-21T02:58:51;98721.72;;;8.16;30.02
35443;BME280;21561;55.654;37.592;2023-04-21T03:01:18;98727.69;;;8.21;30.03
35443;BME280;21561;55.654;37.592;2023-04-21T03:03:45;98731.13;;;8.23;30.09
35443;BME280;21561;55.654;37.592;2023-04-21T03:06:12;98736.28;;;8.23;30.35
35443;BME280;21561;55.654;37.592;2023-04-21T03:08:38;98735.41;;;8.28;30.43
35443;BME280;21561;55.654;37.592;2023-04-21T03:11:05;98736.13;;;8.42;30.60
35443;BME280;21561;55.654;37.592;2023-04-21T03:13:31;98748.94;;;8.48;30.53
35443;BME280;21561;55.654;37.592;2023-04-21T03:15:58;98772.25;;;8.45;31.06
35443;BME280;21561;55.654;37.592;2023-04-21T03:18:25;98767.88;;;8.50;30.87
35443;BME280;21561;55.654;37.592;2023-04-21T03:20:51;98791.22;;;8.47;30.98
35443;BME280;21561;55.654;37.592;2023-04-21T03:23:18;98784.31;;;8.46;31.21
35443;BME280;21561;55.654;37.592;2023-04-21T03:25:45;98782.59;;;8.45;30.89
35443;BME280;21561;55.654;37.592;2023-04-21T03:28:11;98774.81;;;8.48;30.77
35443;BME280;21561;55.654;37.592;2023-04-21T03:30:38;98784.22;;;8.52;30.58
35443;BME280;21561;55.654;37.592;2023-04-21T03:33:05;98785.91;;;8.58;31.28
35443;BME280;21561;55.654;37.592;2023-04-21T03:35:32;98791.03;;;8.59;30.86
35443;BME280;21561;55.654;37.592;2023-04-21T03:37:59;98783.22;;;8.63;30.98
35443;BME280;21561;55.654;37.592;2023-04-21T03:40:29;98796.97;;;8.66;31.22
35443;BME280;21561;55.654;37.592;2023-04-21T03:42:55;98792.66;;;8.67;30.88
35443;BME280;21561;55.654;37.592;2023-04-21T03:45:22;98785.66;;;8.75;30.66
35443;BME280;21561;55.654;37.592;2023-04-21T03:47:53;98789.91;;;8.79;30.68
35443;BME280;21561;55.654;37.592;2023-04-21T03:50:20;98785.59;;;8.81;30.47
35443;BME280;21561;55.654;37.592;2023-04-21T03:52:47;98787.28;;;8.82;30.70
35443;BME280;21561;55.654;37.592;2023-04-21T03:55:13;98787.25;;;8.85;30.60
35443;BME280;21561;55.654;37.592;2023-04-21T03:57:40;98789.00;;;8.83;30.69
35443;BME280;21561;55.654;37.592;2023-04-21T04:00:07;98788.94;;;8.86;31.09
35443;BME280;21561;55.654;37.592;2023-04-21T04:02:35;98783.75;;;8.89;30.67
35443;BME280;21561;55.654;37.592;2023-04-21T04:05:03;98788.91;;;8.91;30.84
35443;BME280;21561;55.654;37.592;2023-04-21T04:07:31;98783.72;;;8.92;30.83
35443;BME280;21561;55.654;37.592;2023-04-21T04:09:57;98787.09;;;8.97;30.67
35443;BME280;21561;55.654;37.592;2023-04-21T04:12:24;98785.34;;;9.00;30.63
35443;BME280;21561;55.654;37.592;2023-04-21T04:14:51;98783.47;;;9.08;30.87
35443;BME280;21561;55.654;37.592;2023-04-21T04:17:17;98787.75;;;9.10;30.70
35443;BME280;21561;55.654;37.592;2023-04-21T04:19:44;98790.34;;;9.12;30.87
35443;BME280;21561;55.654;37.592;2023-04-21T04:22:10;98782.50;;;9.15;30.75
35443;BME280;21561;55.654;37.592;2023-04-21T04:24:37;98785.03;;;9.18;30.78
35443;BME280;21561;55.654;37.592;2023-04-21T04:27:04;98778.09;;;9.22;30.67
35443;BME280;21561;55.654;37.592;2023-04-21T04:29:31;98778.84;;;9.30;30.48
35443;BME280;21561;55.654;37.592;2023-04-21T04:31:57;98777.03;;;9.35;30.69
35443;BME280;21561;55.654;37.592;2023-04-21T04:34:26;98776.97;;;9.36;30.78
35443;BME280;21561;55.654;37.592;2023-04-21T04:36:53;98781.25;;;9.41;30.55
35443;BME280;21561;55.654;37.592;2023-04-21T04:39:19;98776.91;;;9.43;30.60
35443;BME280;21561;55.654;37.592;2023-04-21T04:41:47;98776.00;;;9.44;30.47
35443;BME280;21561;55.654;37.592;2023-04-21T04:44:14;98781.94;;;9.50;30.73
35443;BME280;21561;55.654;37.592;2023-04-21T04:46:43;98781.97;;;9.49;30.58
35443;BME280;21561;55.654;37.592;2023-04-21T04:49:10;98777.59;;;9.51;30.58
35443;BME280;21561;55.654;37.592;2023-04-21T04:51:37;98784.34;;;9.61;30.65
35443;BME280;21561;55.654;37.592;2023-04-21T04:54:03;98784.34;;;9.61;30.62
35443;BME280;21561;55.654;37.592;2023-04-21T04:56:31;98773.13;;;9.62;30.65
35443;BME280;21561;55.654;37.592;2023-04-21T04:58:58;98779.00;;;9.70;30.67
35443;BME280;21561;55.654;37.592;2023-04-21T05:01:24;98777.38;;;9.66;30.45
35443;BME280;21561;55.654;37.592;2023-04-21T05:03:55;98778.16;;;9.71;30.42
35443;BME280;21561;55.654;37.592;2023-04-21T05:06:22;98778.03;;;9.76;30.42
35443;BME280;21561;55.654;37.592;2023-04-21T05:08:49;98773.72;;;9.78;30.43
35443;BME280;21561;55.654;37.592;2023-04-21T05:11:15;98779.63;;;9.85;30.63
35443;BME280;21561;55.654;37.592;2023-04-21T05:13:42;98779.59;;;9.86;30.56
35443;BME280;21561;55.654;37.592;2023-04-21T05:16:09;98767.47;;;9.88;30.37
35443;BME280;21561;55.654;37.592;2023-04-21T05:18:36;98777.72;;;9.94;30.48
35443;BME280;21561;55.654;37.592;2023-04-21T05:21:03;98780.13;;;10.05;30.52
35443;BME280;21561;55.654;37.592;2023-04-21T05:23:30;98767.97;;;10.07;30.36
35443;BME280;21561;55.654;37.592;2023-04-21T05:25:56;98767.16;;;10.05;30.35
35443;BME280;21561;55.654;37.592;2023-04-21T05:28:23;98758.38;;;10.12;30.28
35443;BME280;21561;55.654;37.592;2023-04-21T05:30:49;98752.19;;;10.20;30.15
35443;BME280;21561;55.654;37.592;2023-04-21T05:33:19;98757.28;;;10.23;30.23
35443;BME280;21561;55.654;37.592;2023-04-21T05:35:46;98761.47;;;10.31;30.28
35443;BME280;21561;55.654;37.592;2023-04-21T05:38:13;98756.22;;;10.36;30.11
35443;BME280;21561;55.654;37.592;2023-04-21T05:40:39;98763.06;;;10.39;30.30
35443;BME280;21561;55.654;37.592;2023-04-21T05:43:06;98758.63;;;10.45;30.10
35443;BME280;21561;55.654;37.592;2023-04-21T05:45:32;98757.56;;;10.54;30.03
35443;BME280;21561;55.654;37.592;2023-04-21T05:47:59;98754.03;;;10.57;30.00
35443;BME280;21561;55.654;37.592;2023-04-21T05:50:25;98761.78;;;10.60;29.93
35443;BME280;21561;55.654;37.592;2023-04-21T05:52:59;98751.34;;;10.63;29.89
35443;BME280;21561;55.654;37.592;2023-04-21T05:55:25;98750.28;;;10.72;29.76
35443;BME280;21561;55.654;37.592;2023-04-21T05:57:52;98743.19;;;10.78;29.74
35443;BME280;21561;55.654;37.592;2023-04-21T06:00:18;98742.25;;;10.82;29.67
35443;BME280;21561;55.654;37.592;2023-04-21T06:02:45;98733.44;;;10.89;29.55
35443;BME280;21561;55.654;37.592;2023-04-21T06:05:12;98729.69;;;11.01;29.50
35443;BME280;21561;55.654;37.592;2023-04-21T06:07:38;98720.75;;;11.15;29.41
35443;BME280;21561;55.654;37.592;2023-04-21T06:10:05;98719.84;;;11.16;29.26
35443;BME280;21561;55.654;37.592;2023-04-21T06:12:32;98720.63;;;11.19;29.35
35443;BME280;21561;55.654;37.592;2023-04-21T06:14:59;98715.28;;;11.25;29.22
35443;BME280;21561;55.654;37.592;2023-04-21T06:17:25;98715.19;;;11.28;28.89
35443;BME280;21561;55.654;37.592;2023-04-21T06:19:52;98712.44;;;11.35;29.15
35443;BME280;21561;55.654;37.592;2023-04-21T06:22:19;98720.00;;;11.44;29.16
35443;BME280;21561;55.654;37.592;2023-04-21T06:24:46;98720.63;;;11.54;29.09
35443;BME280;21561;55.654;37.592;2023-04-21T06:27:13;98710.16;;;11.57;29.16
35443;BME280;21561;55.654;37.592;2023-04-21T06:29:39;98710.06;;;11.60;28.97
35443;BME280;21561;55.654;37.592;2023-04-21T06:32:08;98703.94;;;11.62;29.12
35443;BME280;21561;55.654;37.592;2023-04-21T06:34:35;98703.84;;;11.65;29.03
35443;BME280;21561;55.654;37.592;2023-04-21T06:37:01;98704.38;;;11.78;28.63
35443;BME280;21561;55.654;37.592;2023-04-21T06:39:28;98692.97;;;11.84;28.40
35443;BME280;21561;55.654;37.592;2023-04-21T06:41:54;98696.44;;;11.84;28.65
35443;BME280;21561;55.654;37.592;2023-04-21T06:44:23;98685.13;;;11.85;28.79
35443;BME280;21561;55.654;37.592;2023-04-21T06:46:50;98684.22;;;11.88;28.89
35443;BME280;21561;55.654;37.592;2023-04-21T06:49:16;98677.91;;;11.97;28.84
35443;BME280;21561;55.654;37.592;2023-04-21T06:51:43;98682.91;;;12.05;28.68
35443;BME280;21561;55.654;37.592;2023-04-21T06:54:10;98674.13;;;12.09;28.33
35443;BME280;21561;55.654;37.592;2023-04-21T06:56:36;98655.81;;;12.12;28.28
35443;BME280;21561;55.654;37.592;2023-04-21T06:59:03;98669.44;;;12.20;28.30
35443;BME280;21561;55.654;37.592;2023-04-21T07:01:30;98664.84;;;12.30;28.36
35443;BME280;21561;55.654;37.592;2023-04-21T07:03:56;98638.78;;;12.31;27.88
35443;BME280;21561;55.654;37.592;2023-04-21T07:06:23;98654.41;;;12.31;28.09
35443;BME280;21561;55.654;37.592;2023-04-21T07:08:50;98642.09;;;12.36;28.10
35443;BME280;21561;55.654;37.592;2023-04-21T07:11:16;98651.50;;;12.40;28.00
35443;BME280;21561;55.654;37.592;2023-04-21T07:13:43;98633.25;;;12.42;27.79
35443;BME280;21561;55.654;37.592;2023-04-21T07:16:10;98630.50;;;12.47;27.82
35443;BME280;21561;55.654;37.592;2023-04-21T07:18:38;98625.13;;;12.53;27.69
35443;BME280;21561;55.654;37.592;2023-04-21T07:21:04;98624.19;;;12.54;27.77
35443;BME280;21561;55.654;37.592;2023-04-21T07:23:31;98623.09;;;12.61;27.88
35443;BME280;21561;55.654;37.592;2023-04-21T07:25:58;98620.28;;;12.69;27.88
35443;BME280;21561;55.654;37.592;2023-04-21T07:28:25;98620.91;;;12.75;27.95
35443;BME280;21561;55.654;37.592;2023-04-21T07:30:51;98613.72;;;12.84;27.60
35443;BME280;21561;55.654;37.592;2023-04-21T07:33:18;98574.66;;;12.84;26.50
35443;BME280;21561;55.654;37.592;2023-04-21T07:35:45;98585.44;;;12.73;26.96
35443;BME280;21561;55.654;37.592;2023-04-21T07:38:11;98570.75;;;12.70;26.65
35443;BME280;21561;55.654;37.592;2023-04-21T07:40:38;98580.94;;;12.78;26.99
35443;BME280;21561;55.654;37.592;2023-04-21T07:43:04;98575.56;;;12.83;26.88
35443;BME280;21561;55.654;37.592;2023-04-21T07:45:31;98572.91;;;12.84;27.14
35443;BME280;21561;55.654;37.592;2023-04-21T07:47:58;98559.75;;;12.89;26.71
35443;BME280;21561;55.654;37.592;2023-04-21T07:50:24;98559.56;;;12.93;26.91
35443;BME280;21561;55.654;37.592;2023-04-21T07:52:51;98549.91;;;12.97;26.15
35443;BME280;21561;55.654;37.592;2023-04-21T07:55:18;98542.88;;;12.99;26.45
35443;BME280;21561;55.654;37.592;2023-04-21T07:57:45;98549.00;;;12.98;26.95
35443;BME280;21561;55.654;37.592;2023-04-21T08:00:12;98545.28;;;13.05;27.12
35443;BME280;21561;55.654;37.592;2023-04-21T08:02:39;98539.00;;;13.11;27.08
35443;BME280;21561;55.654;37.592;2023-04-21T08:05:06;98541.34;;;13.18;26.99
35443;BME280;21561;55.654;37.592;2023-04-21T08:07:32;98527.31;;;13.23;26.50
35443;BME280;21561;55.654;37.592;2023-04-21T08:09:59;98530.81;;;13.22;26.87
35443;BME280;21561;55.654;37.592;2023-04-21T08:12:26;98494.41;;;13.20;24.84
35443;BME280;21561;55.654;37.592;2023-04-21T08:14:53;98478.72;;;13.22;25.21
35443;BME280;21561;55.654;37.592;2023-04-21T08:17:20;98468.75;;;13.09;25.25
35443;BME280;21561;55.654;37.592;2023-04-21T08:19:47;98458.66;;;13.00;24.81
35443;BME280;21561;55.654;37.592;2023-04-21T08:22:14;98456.94;;;12.99;25.43
35443;BME280;21561;55.654;37.592;2023-04-21T08:24:40;98463.88;;;13.00;25.83
35443;BME280;21561;55.654;37.592;2023-04-21T08:27:07;98481.72;;;13.11;25.81
35443;BME280;21561;55.654;37.592;2023-04-21T08:29:33;98468.31;;;13.22;25.84
35443;BME280;21561;55.654;37.592;2023-04-21T08:32:00;98476.69;;;13.30;26.07
35443;BME280;21561;55.654;37.592;2023-04-21T08:34:27;98466.50;;;13.47;25.70
35443;BME280;21561;55.654;37.592;2023-04-21T08:36:54;98453.38;;;13.50;25.18
35443;BME280;21561;55.654;37.592;2023-04-21T08:39:20;98448.06;;;13.53;24.75
35443;BME280;21561;55.654;37.592;2023-04-21T08:41:47;98428.41;;;13.45;24.74
35443;BME280;21561;55.654;37.592;2023-04-21T08:44:14;98427.88;;;13.35;24.94
35443;BME280;21561;55.654;37.592;2023-04-21T08:46:42;98422.88;;;13.29;25.05
35443;BME280;21561;55.654;37.592;2023-04-21T08:49:10;98418.03;;;13.20;25.27
35443;BME280;21561;55.654;37.592;2023-04-21T08:51:38;98415.63;;;13.13;25.44
35443;BME280;21561;55.654;37.592;2023-04-21T08:54:05;98420.84;;;13.13;25.63
35443;BME280;21561;55.654;37.592;2023-04-21T08:56:32;98422.25;;;13.22;25.54
35443;BME280;21561;55.654;37.592;2023-04-21T08:59:06;98421.84;;;13.34;24.95
35443;BME280;21561;55.654;37.592;2023-04-21T09:01:46;98411.78;;;13.24;25.35
35443;BME280;21561;55.654;37.592;2023-04-21T09:04:22;98405.91;;;13.18;25.68
35443;BME280;21561;55.654;37.592;2023-04-21T09:06:49;98410.03;;;13.24;25.72
35443;BME280;21561;55.654;37.592;2023-04-21T09:09:16;98425.94;;;13.40;25.62
35443;BME280;21561;55.654;37.592;2023-04-21T09:11:42;98417.88;;;13.48;25.69
35443;BME280;21561;55.654;37.592;2023-04-21T09:14:10;98422.00;;;13.53;25.51
35443;BME280;21561;55.654;37.592;2023-04-21T09:16:36;98415.06;;;13.52;25.61
35443;BME280;21561;55.654;37.592;2023-04-21T09:19:03;98405.72;;;13.47;25.72
35443;BME280;21561;55.654;37.592;2023-04-21T09:21:38;98402.34;;;13.45;25.70
35443;BME280;21561;55.654;37.592;2023-04-21T09:24:09;98403.69;;;13.31;25.95
35443;BME280;21561;55.654;37.592;2023-04-21T09:26:35;98406.94;;;13.38;25.93
35443;BME280;21561;55.654;37.592;2023-04-21T09:29:02;98405.47;;;13.31;26.24
35443;BME280;21561;55.654;37.592;2023-04-21T09:31:31;98404.09;;;13.44;26.19
35443;BME280;21561;55.654;37.592;2023-04-21T09:34:00;98406.94;;;13.60;26.13
35443;BME280;21561;55.654;37.592;2023-04-21T09:36:28;98409.78;;;13.76;26.10
35443;BME280;21561;55.654;37.592;2023-04-21T09:38:56;98415.44;;;13.87;26.05
35443;BME280;21561;55.654;37.592;2023-04-21T09:41:43;98398.44;;;13.99;26.09
35443;BME280;21561;55.654;37.592;2023-04-21T09:44:10;98412.75;;;14.11;26.16
35443;BME280;21561;55.654;37.592;2023-04-21T09:46:37;98408.03;;;14.19;26.00
35443;BME280;21561;55.654;37.592;2023-04-21T09:49:03;98393.81;;;14.06;26.29
35443;BME280;21561;55.654;37.592;2023-04-21T09:51:31;98381.94;;;13.99;26.49
35443;BME280;21561;55.654;37.592;2023-04-21T09:54:18;98402.44;;;14.08;26.36
35443;BME280;21561;55.654;37.592;2023-04-21T09:56:49;98403.63;;;14.21;26.39
35443;BME280;21561;55.654;37.592;2023-04-21T09:59:20;98406.91;;;14.47;26.14
35443;BME280;21561;55.654;37.592;2023-04-21T10:01:50;98380.03;;;14.65;25.09
35443;BME280;21561;55.654;37.592;2023-04-21T10:04:18;98368.34;;;14.54;25.78
35443;BME280;21561;55.654;37.592;2023-04-21T10:06:47;98366.69;;;14.51;25.69
35443;BME280;21561;55.654;37.592;2023-04-21T10:09:15;98369.13;;;14.56;25.46
35443;BME280;21561;55.654;37.592;2023-04-21T10:11:43;98362.47;;;14.48;25.80
35443;BME280;21561;55.654;37.592;2023-04-21T10:14:10;98365.00;;;14.50;26.04
35443;BME280;21561;55.654;37.592;2023-04-21T10:16:36;98371.66;;;14.57;26.18
35443;BME280;21561;55.654;37.592;2023-04-21T10:19:22;98378.22;;;15.05;25.66
35443;BME280;21561;55.654;37.592;2023-04-21T10:21:50;98357.44;;;15.96;25.02
35443;BME280;21561;55.654;37.592;2023-04-21T10:24:17;98340.50;;;16.71;24.90
35443;BME280;21561;55.654;37.592;2023-04-21T10:26:44;98330.88;;;17.67;24.59
35443;BME280;21561;55.654;37.592;2023-04-21T10:29:11;98320.81;;;18.65;24.01
35443;BME280;21561;55.654;37.592;2023-04-21T10:31:50;98291.13;;;19.60;23.35
35443;BME280;21561;55.654;37.592;2023-04-21T10:34:20;98233.94;;;20.28;22.25
35443;BME280;21561;55.654;37.592;2023-04-21T10:36:48;98200.94;;;20.85;21.93
35443;BME280;21561;55.654;37.592;2023-04-21T10:39:26;98127.09;;;20.98;21.28
35443;BME280;21561;55.654;37.592;2023-04-21T10:42:16;98165.44;;;21.50;22.06
35443;BME280;21561;55.654;37.592;2023-04-21T10:44:52;98190.59;;;22.69;21.68
35443;BME280;21561;55.654;37.592;2023-04-21T10:47:29;98152.50;;;23.78;21.20
35443;BME280;21561;55.654;37.592;2023-04-21T10:52:38;98037.44;;;25.11;18.90
35443;BME280;21561;55.654;37.592;2023-04-21T10:57:33;97962.72;;;24.08;18.42
35443;BME280;21561;55.654;37.592;2023-04-21T10:59:59;97944.91;;;23.19;19.88
35443;BME280;21561;55.654;37.592;2023-04-21T11:02:29;97962.50;;;22.46;19.35
35443;BME280;21561;55.654;37.592;2023-04-21T11:04:56;97971.91;;;21.39;21.08
35443;BME280;21561;55.654;37.592;2023-04-21T11:07:24;98000.59;;;21.66;20.44
35443;BME280;21561;55.654;37.592;2023-04-21T11:09:58;97993.00;;;22.71;20.45
35443;BME280;21561;55.654;37.592;2023-04-21T11:12:26;97995.16;;;23.50;20.29
35443;BME280;21561;55.654;37.592;2023-04-21T11:14:53;97961.06;;;24.07;19.19
35443;BME280;21561;55.654;37.592;2023-04-21T11:17:20;97940.72;;;24.08;19.32
35443;BME280;21561;55.654;37.592;2023-04-21T11:19:54;97927.06;;;24.12;19.31
35443;BME280;21561;55.654;37.592;2023-04-21T11:22:22;97895.31;;;24.89;17.72
35443;BME280;21561;55.654;37.592;2023-04-21T11:24:52;97775.53;;;24.46;16.76
35443;BME280;21561;55.654;37.592;2023-04-21T11:27:19;97762.78;;;24.12;17.27
35443;BME280;21561;55.654;37.592;2023-04-21T11:29:48;97811.81;;;24.36;18.77
35443;BME280;21561;55.654;37.592;2023-04-21T11:32:15;97809.97;;;25.31;17.29
35443;BME280;21561;55.654;37.592;2023-04-21T11:34:42;97694.03;;;25.04;15.75
35443;BME280;21561;55.654;37.592;2023-04-21T11:37:09;97673.31;;;23.77;16.67
35443;BME280;21561;55.654;37.592;2023-04-21T11:39:39;97667.75;;;22.92;16.67
35443;BME280;21561;55.654;37.592;2023-04-21T11:42:06;97687.16;;;22.62;17.47
35443;BME280;21561;55.654;37.592;2023-04-21T11:44:39;97694.09;;;22.53;17.58
35443;BME280;21561;55.654;37.592;2023-04-21T11:47:13;97700.75;;;21.96;18.03
35443;BME280;21561;55.654;37.592;2023-04-21T11:49:47;97722.63;;;22.28;17.88
35443;BME280;21561;55.654;37.592;2023-04-21T11:52:21;97714.19;;;22.35;18.19
35443;BME280;21561;55.654;37.592;2023-04-21T11:54:52;97704.84;;;22.30;17.83
35443;BME280;21561;55.654;37.592;2023-04-21T11:57:19;97696.53;;;22.45;17.78
35443;BME280;21561;55.654;37.592;2023-04-21T11:59:47;97694.72;;;22.86;17.83
35443;BME280;21561;55.654;37.592;2023-04-21T12:02:24;97680.16;;;23.01;17.47
35443;BME280;21561;55.654;37.592;2023-04-21T12:04:58;97656.41;;;22.20;17.60
35443;BME280;21561;55.654;37.592;2023-04-21T12:07:25;97678.56;;;22.08;18.48
35443;BME280;21561;55.654;37.592;2023-04-21T12:09:52;97675.50;;;21.82;17.86
35443;BME280;21561;55.654;37.592;2023-04-21T12:12:20;97694.00;;;21.61;18.72
35443;BME280;21561;55.654;37.592;2023-04-21T12:14:48;97718.09;;;22.19;18.69
35443;BME280;21561;55.654;37.592;2023-04-21T12:17:14;97705.25;;;22.66;17.97
35443;BME280;21561;55.654;37.592;2023-04-21T12:19:41;97719.59;;;22.12;18.89
35443;BME280;21561;55.654;37.592;2023-04-21T12:22:09;97721.16;;;21.40;18.68
35443;BME280;21561;55.654;37.592;2023-04-21T12:24:36;97721.78;;;20.89;18.88
35443;BME280;21561;55.654;37.592;2023-04-21T12:27:03;97745.41;;;20.23;19.36
35443;BME280;21561;55.654;37.592;2023-04-21T12:29:30;97759.13;;;19.44;20.26
35443;BME280;21561;55.654;37.592;2023-04-21T12:31:56;97766.47;;;19.27;20.29
35443;BME280;21561;55.654;37.592;2023-04-21T12:34:23;97776.59;;;19.21;20.26
35443;BME280;21561;55.654;37.592;2023-04-21T12:36:50;97791.75;;;19.41;20.86
35443;BME280;21561;55.654;37.592;2023-04-21T12:39:16;97798.91;;;20.46;19.82
35443;BME280;21561;55.654;37.592;2023-04-21T12:41:44;97775.34;;;21.44;19.20
35443;BME280;21561;55.654;37.592;2023-04-21T12:44:13;97776.59;;;22.57;18.76
35443;BME280;21561;55.654;37.592;2023-04-21T12:46:40;97730.59;;;23.68;17.45
35443;BME280;21561;55.654;37.592;2023-04-21T12:49:06;97666.66;;;23.73;17.53
35443;BME280;21561;55.654;37.592;2023-04-21T12:51:34;97660.38;;;23.64;17.88
35443;BME280;21561;55.654;37.592;2023-04-21T12:54:01;97644.34;;;23.85;17.65
35443;BME280;21561;55.654;37.592;2023-04-21T12:56:27;97617.16;;;23.73;17.11
35443;BME280;21561;55.654;37.592;2023-04-21T12:58:55;97602.59;;;22.72;17.44
35443;BME280;21561;55.654;37.592;2023-04-21T13:01:22;97650.16;;;21.48;18.69
35443;BME280;21561;55.654;37.592;2023-04-21T13:03:49;97651.88;;;20.51;18.89
35443;BME280;21561;55.654;37.592;2023-04-21T13:06:16;97671.53;;;19.55;19.61